sensor_id;sensor_type;location;lat;lon;timestamp;P1;durP1;ratioP1;P2;durP2;ratioP2
41255;SDS011;26989;45.524;10.938;2022-08-18T00:01:05;5.95;;;1.55;;
41255;SDS011;26989;45.524;10.938;2022-08-18T00:03:33;8.98;;;2.00;;
41255;SDS011;26989;45.524;10.938;2022-08-18T00:06:20;6.70;;;2.05;;
41255;SDS011;26989;45.524;10.938;2022-08-18T00:08:47;4.65;;;1.60;;
41255;SDS011;26989;45.524;10.938;2022-08-18T00:11:18;6.28;;;2.05;;
41255;SDS011;26989;45.524;10.938;2022-08-18T00:13:45;5.75;;;1.50;;
41255;SDS011;26989;45.524;10.938;2022-08-18T00:16:12;3.80;;;1.60;;
41255;SDS011;26989;45.524;10.938;2022-08-18T00:18:39;4.75;;;1.58;;
41255;SDS011;26989;45.524;10.938;2022-08-18T00:21:06;5.18;;;2.38;;
41255;SDS011;26989;45.524;10.938;2022-08-18T00:23:32;6.47;;;1.85;;
41255;SDS011;26989;45.524;10.938;2022-08-18T00:25:59;5.00;;;1.63;;
41255;SDS011;26989;45.524;10.938;2022-08-18T00:28:26;7.93;;;1.65;;
41255;SDS011;26989;45.524;10.938;2022-08-18T00:30:53;4.32;;;1.63;;
41255;SDS011;26989;45.524;10.938;2022-08-18T00:33:20;4.90;;;1.70;;
41255;SDS011;26989;45.524;10.938;2022-08-18T00:35:48;4.25;;;1.77;;
41255;SDS011;26989;45.524;10.938;2022-08-18T00:38:16;5.53;;;1.35;;
41255;SDS011;26989;45.524;10.938;2022-08-18T00:40:51;3.17;;;1.50;;
41255;SDS011;26989;45.524;10.938;2022-08-18T00:43:30;3.25;;;1.67;;
41255;SDS011;26989;45.524;10.938;2022-08-18T00:46:10;6.78;;;1.80;;
41255;SDS011;26989;45.524;10.938;2022-08-18T00:48:43;5.93;;;2.05;;
41255;SDS011;26989;45.524;10.938;2022-08-18T00:51:15;4.25;;;1.60;;
41255;SDS011;26989;45.524;10.938;2022-08-18T00:56:22;5.97;;;1.50;;
41255;SDS011;26989;45.524;10.938;2022-08-18T00:58:57;3.50;;;1.77;;
41255;SDS011;26989;45.524;10.938;2022-08-18T01:01:32;5.32;;;1.50;;
41255;SDS011;26989;45.524;10.938;2022-08-18T01:04:23;4.13;;;1.60;;
41255;SDS011;26989;45.524;10.938;2022-08-18T01:06:58;5.57;;;1.70;;
41255;SDS011;26989;45.524;10.938;2022-08-18T01:09:31;3.60;;;1.60;;
41255;SDS011;26989;45.524;10.938;2022-08-18T01:11:58;5.28;;;1.50;;
41255;SDS011;26989;45.524;10.938;2022-08-18T01:14:25;5.25;;;1.63;;
41255;SDS011;26989;45.524;10.938;2022-08-18T01:16:52;4.18;;;1.42;;
41255;SDS011;26989;45.524;10.938;2022-08-18T01:19:38;5.13;;;1.23;;
41255;SDS011;26989;45.524;10.938;2022-08-18T01:25:00;5.68;;;1.40;;
41255;SDS011;26989;45.524;10.938;2022-08-18T01:27:51;6.72;;;1.50;;
41255;SDS011;26989;45.524;10.938;2022-08-18T01:30:25;7.03;;;1.90;;
41255;SDS011;26989;45.524;10.938;2022-08-18T01:32:53;4.57;;;1.63;;
41255;SDS011;26989;45.524;10.938;2022-08-18T01:35:20;2.40;;;1.50;;
41255;SDS011;26989;45.524;10.938;2022-08-18T01:37:51;3.85;;;1.55;;
41255;SDS011;26989;45.524;10.938;2022-08-18T01:40:20;3.10;;;1.25;;
41255;SDS011;26989;45.524;10.938;2022-08-18T01:43:08;7.75;;;1.73;;
41255;SDS011;26989;45.524;10.938;2022-08-18T01:45:35;4.85;;;1.50;;
41255;SDS011;26989;45.524;10.938;2022-08-18T01:48:02;4.68;;;1.38;;
41255;SDS011;26989;45.524;10.938;2022-08-18T01:50:30;5.40;;;1.75;;
41255;SDS011;26989;45.524;10.938;2022-08-18T01:53:00;5.90;;;1.63;;
41255;SDS011;26989;45.524;10.938;2022-08-18T01:55:31;3.63;;;1.63;;
41255;SDS011;26989;45.524;10.938;2022-08-18T01:58:00;4.75;;;1.65;;
41255;SDS011;26989;45.524;10.938;2022-08-18T02:00:27;4.97;;;1.65;;
41255;SDS011;26989;45.524;10.938;2022-08-18T02:02:54;5.35;;;1.30;;
41255;SDS011;26989;45.524;10.938;2022-08-18T02:05:31;5.60;;;1.35;;
41255;SDS011;26989;45.524;10.938;2022-08-18T02:08:01;2.90;;;1.10;;
41255;SDS011;26989;45.524;10.938;2022-08-18T02:10:28;3.05;;;1.27;;
41255;SDS011;26989;45.524;10.938;2022-08-18T02:12:55;5.18;;;1.50;;
41255;SDS011;26989;45.524;10.938;2022-08-18T02:15:22;4.65;;;1.70;;
41255;SDS011;26989;45.524;10.938;2022-08-18T02:17:49;7.57;;;2.13;;
41255;SDS011;26989;45.524;10.938;2022-08-18T02:20:17;10.63;;;1.77;;
41255;SDS011;26989;45.524;10.938;2022-08-18T02:22:45;5.80;;;1.75;;
41255;SDS011;26989;45.524;10.938;2022-08-18T02:25:13;4.40;;;1.55;;
41255;SDS011;26989;45.524;10.938;2022-08-18T02:27:41;4.28;;;1.45;;
41255;SDS011;26989;45.524;10.938;2022-08-18T02:30:09;5.45;;;1.48;;
41255;SDS011;26989;45.524;10.938;2022-08-18T02:32:38;4.07;;;1.60;;
41255;SDS011;26989;45.524;10.938;2022-08-18T02:35:05;2.33;;;1.10;;
41255;SDS011;26989;45.524;10.938;2022-08-18T02:37:37;5.47;;;1.80;;
41255;SDS011;26989;45.524;10.938;2022-08-18T02:40:08;8.60;;;2.20;;
41255;SDS011;26989;45.524;10.938;2022-08-18T02:42:41;7.55;;;2.53;;
41255;SDS011;26989;45.524;10.938;2022-08-18T02:45:09;7.85;;;2.20;;
41255;SDS011;26989;45.524;10.938;2022-08-18T02:47:38;8.60;;;2.75;;
41255;SDS011;26989;45.524;10.938;2022-08-18T02:50:08;6.53;;;2.05;;
41255;SDS011;26989;45.524;10.938;2022-08-18T02:52:36;5.85;;;2.35;;
41255;SDS011;26989;45.524;10.938;2022-08-18T02:55:05;4.03;;;2.13;;
41255;SDS011;26989;45.524;10.938;2022-08-18T02:57:33;10.05;;;2.33;;
41255;SDS011;26989;45.524;10.938;2022-08-18T03:00:00;7.32;;;2.72;;
41255;SDS011;26989;45.524;10.938;2022-08-18T03:02:28;17.75;;;4.35;;
41255;SDS011;26989;45.524;10.938;2022-08-18T03:04:54;22.17;;;7.05;;
41255;SDS011;26989;45.524;10.938;2022-08-18T03:07:21;10.55;;;2.47;;
41255;SDS011;26989;45.524;10.938;2022-08-18T03:09:49;15.05;;;3.05;;
41255;SDS011;26989;45.524;10.938;2022-08-18T03:12:16;5.18;;;1.70;;
41255;SDS011;26989;45.524;10.938;2022-08-18T03:14:43;6.20;;;1.35;;
41255;SDS011;26989;45.524;10.938;2022-08-18T03:17:11;5.35;;;1.83;;
41255;SDS011;26989;45.524;10.938;2022-08-18T03:19:40;8.65;;;1.70;;
41255;SDS011;26989;45.524;10.938;2022-08-18T03:22:12;6.75;;;2.00;;
41255;SDS011;26989;45.524;10.938;2022-08-18T03:27:20;4.60;;;1.25;;
41255;SDS011;26989;45.524;10.938;2022-08-18T03:29:47;7.32;;;1.85;;
41255;SDS011;26989;45.524;10.938;2022-08-18T03:32:15;3.42;;;1.20;;
41255;SDS011;26989;45.524;10.938;2022-08-18T03:34:42;4.47;;;1.60;;
41255;SDS011;26989;45.524;10.938;2022-08-18T03:37:09;5.85;;;0.90;;
41255;SDS011;26989;45.524;10.938;2022-08-18T03:39:36;5.10;;;1.58;;
41255;SDS011;26989;45.524;10.938;2022-08-18T03:42:03;3.88;;;1.52;;
41255;SDS011;26989;45.524;10.938;2022-08-18T03:44:31;8.93;;;1.48;;
41255;SDS011;26989;45.524;10.938;2022-08-18T03:47:02;4.72;;;1.35;;
41255;SDS011;26989;45.524;10.938;2022-08-18T03:49:33;4.70;;;1.13;;
41255;SDS011;26989;45.524;10.938;2022-08-18T03:52:00;4.70;;;1.35;;
41255;SDS011;26989;45.524;10.938;2022-08-18T03:54:29;4.78;;;1.40;;
41255;SDS011;26989;45.524;10.938;2022-08-18T03:56:57;2.65;;;1.02;;
41255;SDS011;26989;45.524;10.938;2022-08-18T03:59:25;5.75;;;1.17;;
41255;SDS011;26989;45.524;10.938;2022-08-18T04:01:53;2.53;;;1.17;;
41255;SDS011;26989;45.524;10.938;2022-08-18T04:04:22;3.40;;;0.90;;
41255;SDS011;26989;45.524;10.938;2022-08-18T04:06:53;2.75;;;1.00;;
41255;SDS011;26989;45.524;10.938;2022-08-18T04:09:25;2.25;;;1.02;;
41255;SDS011;26989;45.524;10.938;2022-08-18T04:11:54;7.05;;;1.27;;
41255;SDS011;26989;45.524;10.938;2022-08-18T04:14:22;3.35;;;1.27;;
41255;SDS011;26989;45.524;10.938;2022-08-18T04:16:51;3.90;;;1.17;;
41255;SDS011;26989;45.524;10.938;2022-08-18T04:19:24;2.67;;;0.85;;
41255;SDS011;26989;45.524;10.938;2022-08-18T04:21:54;3.33;;;1.13;;
41255;SDS011;26989;45.524;10.938;2022-08-18T04:24:22;2.80;;;1.08;;
41255;SDS011;26989;45.524;10.938;2022-08-18T04:26:51;2.08;;;0.68;;
41255;SDS011;26989;45.524;10.938;2022-08-18T04:29:19;3.03;;;0.70;;
41255;SDS011;26989;45.524;10.938;2022-08-18T04:31:47;4.28;;;1.00;;
41255;SDS011;26989;45.524;10.938;2022-08-18T04:34:15;8.88;;;0.88;;
41255;SDS011;26989;45.524;10.938;2022-08-18T04:36:43;4.03;;;1.02;;
41255;SDS011;26989;45.524;10.938;2022-08-18T04:39:10;4.65;;;1.05;;
41255;SDS011;26989;45.524;10.938;2022-08-18T04:41:39;4.60;;;1.25;;
41255;SDS011;26989;45.524;10.938;2022-08-18T04:44:09;3.30;;;0.82;;
41255;SDS011;26989;45.524;10.938;2022-08-18T04:46:38;4.72;;;0.82;;
41255;SDS011;26989;45.524;10.938;2022-08-18T04:49:08;2.28;;;0.80;;
41255;SDS011;26989;45.524;10.938;2022-08-18T04:51:39;3.33;;;0.70;;
41255;SDS011;26989;45.524;10.938;2022-08-18T04:54:27;5.93;;;1.25;;
41255;SDS011;26989;45.524;10.938;2022-08-18T04:56:54;2.85;;;0.80;;
41255;SDS011;26989;45.524;10.938;2022-08-18T04:59:21;3.70;;;0.80;;
41255;SDS011;26989;45.524;10.938;2022-08-18T05:01:48;3.92;;;1.23;;
41255;SDS011;26989;45.524;10.938;2022-08-18T05:04:15;3.13;;;0.80;;
41255;SDS011;26989;45.524;10.938;2022-08-18T05:06:43;7.35;;;0.90;;
41255;SDS011;26989;45.524;10.938;2022-08-18T05:09:11;7.68;;;1.33;;
41255;SDS011;26989;45.524;10.938;2022-08-18T05:11:47;4.97;;;0.93;;
41255;SDS011;26989;45.524;10.938;2022-08-18T05:14:15;3.83;;;0.77;;
41255;SDS011;26989;45.524;10.938;2022-08-18T05:16:42;3.58;;;0.90;;
41255;SDS011;26989;45.524;10.938;2022-08-18T05:19:15;3.53;;;1.17;;
41255;SDS011;26989;45.524;10.938;2022-08-18T05:21:51;5.78;;;1.40;;
41255;SDS011;26989;45.524;10.938;2022-08-18T05:24:25;3.10;;;0.50;;
41255;SDS011;26989;45.524;10.938;2022-08-18T05:27:02;6.57;;;0.60;;
41255;SDS011;26989;45.524;10.938;2022-08-18T05:29:29;4.03;;;0.88;;
41255;SDS011;26989;45.524;10.938;2022-08-18T05:32:11;3.38;;;1.10;;
41255;SDS011;26989;45.524;10.938;2022-08-18T05:35:06;4.90;;;0.88;;
41255;SDS011;26989;45.524;10.938;2022-08-18T05:40:16;3.63;;;0.95;;
41255;SDS011;26989;45.524;10.938;2022-08-18T05:42:47;2.53;;;0.82;;
41255;SDS011;26989;45.524;10.938;2022-08-18T05:45:16;4.63;;;0.98;;
41255;SDS011;26989;45.524;10.938;2022-08-18T05:47:45;3.63;;;1.30;;
41255;SDS011;26989;45.524;10.938;2022-08-18T05:50:14;2.88;;;0.85;;
41255;SDS011;26989;45.524;10.938;2022-08-18T05:55:28;5.55;;;1.20;;
41255;SDS011;26989;45.524;10.938;2022-08-18T05:58:25;4.68;;;1.58;;
41255;SDS011;26989;45.524;10.938;2022-08-18T06:01:03;4.82;;;1.00;;
41255;SDS011;26989;45.524;10.938;2022-08-18T06:03:39;2.72;;;0.85;;
41255;SDS011;26989;45.524;10.938;2022-08-18T06:06:16;3.60;;;1.00;;
41255;SDS011;26989;45.524;10.938;2022-08-18T06:08:47;5.35;;;1.13;;
41255;SDS011;26989;45.524;10.938;2022-08-18T06:11:22;3.47;;;1.23;;
41255;SDS011;26989;45.524;10.938;2022-08-18T06:13:49;3.58;;;1.17;;
41255;SDS011;26989;45.524;10.938;2022-08-18T06:28:13;5.75;;;1.35;;
41255;SDS011;26989;45.524;10.938;2022-08-18T06:35:48;4.88;;;0.98;;
41255;SDS011;26989;45.524;10.938;2022-08-18T06:49:41;4.20;;;1.08;;
41255;SDS011;26989;45.524;10.938;2022-08-18T06:54:56;3.30;;;1.33;;
41255;SDS011;26989;45.524;10.938;2022-08-18T07:00:02;3.38;;;0.90;;
41255;SDS011;26989;45.524;10.938;2022-08-18T07:02:47;5.50;;;1.17;;
41255;SDS011;26989;45.524;10.938;2022-08-18T07:11:27;6.95;;;1.48;;
41255;SDS011;26989;45.524;10.938;2022-08-18T07:13:55;8.10;;;2.25;;
41255;SDS011;26989;45.524;10.938;2022-08-18T07:16:42;13.55;;;2.40;;
41255;SDS011;26989;45.524;10.938;2022-08-18T07:19:26;18.35;;;4.65;;
41255;SDS011;26989;45.524;10.938;2022-08-18T07:22:07;14.25;;;2.65;;
41255;SDS011;26989;45.524;10.938;2022-08-18T07:24:44;11.70;;;3.67;;
41255;SDS011;26989;45.524;10.938;2022-08-18T07:27:15;9.02;;;3.00;;
41255;SDS011;26989;45.524;10.938;2022-08-18T07:30:06;9.88;;;3.58;;
41255;SDS011;26989;45.524;10.938;2022-08-18T07:32:44;13.73;;;5.82;;
41255;SDS011;26989;45.524;10.938;2022-08-18T07:35:21;24.92;;;9.20;;
41255;SDS011;26989;45.524;10.938;2022-08-18T07:41:08;6.97;;;2.70;;
41255;SDS011;26989;45.524;10.938;2022-08-18T07:43:41;7.75;;;4.30;;
41255;SDS011;26989;45.524;10.938;2022-08-18T07:46:24;10.05;;;3.63;;
41255;SDS011;26989;45.524;10.938;2022-08-18T07:49:00;5.22;;;2.42;;
41255;SDS011;26989;45.524;10.938;2022-08-18T08:17:21;1.05;;;0.35;;
41255;SDS011;26989;45.524;10.938;2022-08-18T08:25:24;0.38;;;0.20;;
41255;SDS011;26989;45.524;10.938;2022-08-18T08:34:06;3.17;;;0.70;;
41255;SDS011;26989;45.524;10.938;2022-08-18T08:36:40;1.40;;;0.60;;
41255;SDS011;26989;45.524;10.938;2022-08-18T08:39:16;4.32;;;0.85;;
41255;SDS011;26989;45.524;10.938;2022-08-18T08:41:55;3.13;;;0.80;;
41255;SDS011;26989;45.524;10.938;2022-08-18T08:44:58;5.38;;;0.90;;
41255;SDS011;26989;45.524;10.938;2022-08-18T08:47:31;2.15;;;0.85;;
41255;SDS011;26989;45.524;10.938;2022-08-18T08:50:24;2.85;;;0.75;;
41255;SDS011;26989;45.524;10.938;2022-08-18T08:53:03;3.88;;;0.80;;
41255;SDS011;26989;45.524;10.938;2022-08-18T08:55:35;6.38;;;1.33;;
41255;SDS011;26989;45.524;10.938;2022-08-18T09:00:38;2.97;;;1.00;;
41255;SDS011;26989;45.524;10.938;2022-08-18T09:03:10;2.05;;;0.60;;
41255;SDS011;26989;45.524;10.938;2022-08-18T09:24:55;3.42;;;0.80;;
41255;SDS011;26989;45.524;10.938;2022-08-18T09:38:50;1.90;;;0.95;;
41255;SDS011;26989;45.524;10.938;2022-08-18T09:41:58;2.10;;;0.63;;
41255;SDS011;26989;45.524;10.938;2022-08-18T09:49:55;3.45;;;1.15;;
41255;SDS011;26989;45.524;10.938;2022-08-18T09:52:54;2.47;;;0.88;;
41255;SDS011;26989;45.524;10.938;2022-08-18T10:06:40;4.35;;;0.80;;
41255;SDS011;26989;45.524;10.938;2022-08-18T10:12:12;7.10;;;1.40;;
41255;SDS011;26989;45.524;10.938;2022-08-18T10:17:36;4.57;;;0.95;;
41255;SDS011;26989;45.524;10.938;2022-08-18T10:23:02;3.05;;;1.13;;
41255;SDS011;26989;45.524;10.938;2022-08-18T10:25:36;4.75;;;1.60;;
41255;SDS011;26989;45.524;10.938;2022-08-18T10:28:09;4.93;;;1.00;;
41255;SDS011;26989;45.524;10.938;2022-08-18T10:31:01;8.30;;;1.65;;
41255;SDS011;26989;45.524;10.938;2022-08-18T10:39:26;11.13;;;2.75;;
41255;SDS011;26989;45.524;10.938;2022-08-18T10:44:41;10.40;;;3.25;;
41255;SDS011;26989;45.524;10.938;2022-08-18T10:49:59;3.78;;;1.27;;
41255;SDS011;26989;45.524;10.938;2022-08-18T10:55:49;1.15;;;0.60;;
41255;SDS011;26989;45.524;10.938;2022-08-18T11:06:26;1.38;;;0.55;;
41255;SDS011;26989;45.524;10.938;2022-08-18T11:08:57;3.45;;;0.90;;
41255;SDS011;26989;45.524;10.938;2022-08-18T11:11:35;2.50;;;0.77;;
41255;SDS011;26989;45.524;10.938;2022-08-18T11:14:35;1.95;;;0.98;;
41255;SDS011;26989;45.524;10.938;2022-08-18T11:20:06;1.52;;;0.70;;
41255;SDS011;26989;45.524;10.938;2022-08-18T11:22:36;1.98;;;1.10;;
41255;SDS011;26989;45.524;10.938;2022-08-18T11:25:16;3.70;;;0.80;;
41255;SDS011;26989;45.524;10.938;2022-08-18T11:28:01;1.67;;;0.88;;
41255;SDS011;26989;45.524;10.938;2022-08-18T11:30:30;4.03;;;0.95;;
41255;SDS011;26989;45.524;10.938;2022-08-18T11:33:19;2.88;;;1.23;;
41255;SDS011;26989;45.524;10.938;2022-08-18T11:35:56;2.05;;;0.70;;
41255;SDS011;26989;45.524;10.938;2022-08-18T11:38:27;2.83;;;1.20;;
41255;SDS011;26989;45.524;10.938;2022-08-18T11:41:15;4.57;;;1.10;;
41255;SDS011;26989;45.524;10.938;2022-08-18T11:43:45;1.85;;;1.20;;
41255;SDS011;26989;45.524;10.938;2022-08-18T11:48:55;2.85;;;0.90;;
41255;SDS011;26989;45.524;10.938;2022-08-18T11:51:24;1.13;;;0.80;;
41255;SDS011;26989;45.524;10.938;2022-08-18T11:56:38;1.08;;;0.65;;
41255;SDS011;26989;45.524;10.938;2022-08-18T11:59:06;2.38;;;1.05;;
41255;SDS011;26989;45.524;10.938;2022-08-18T12:02:17;1.48;;;1.00;;
41255;SDS011;26989;45.524;10.938;2022-08-18T12:04:49;3.70;;;1.10;;
41255;SDS011;26989;45.524;10.938;2022-08-18T12:07:26;3.63;;;1.08;;
41255;SDS011;26989;45.524;10.938;2022-08-18T12:10:17;1.60;;;0.90;;
41255;SDS011;26989;45.524;10.938;2022-08-18T12:13:09;3.90;;;1.00;;
41255;SDS011;26989;45.524;10.938;2022-08-18T12:15:47;2.25;;;0.80;;
41255;SDS011;26989;45.524;10.938;2022-08-18T12:18:38;2.58;;;0.70;;
41255;SDS011;26989;45.524;10.938;2022-08-18T12:21:07;3.05;;;1.00;;
41255;SDS011;26989;45.524;10.938;2022-08-18T12:23:36;3.38;;;1.10;;
41255;SDS011;26989;45.524;10.938;2022-08-18T12:26:25;4.35;;;1.20;;
41255;SDS011;26989;45.524;10.938;2022-08-18T12:29:13;4.18;;;1.00;;
41255;SDS011;26989;45.524;10.938;2022-08-18T12:31:46;4.00;;;0.90;;
41255;SDS011;26989;45.524;10.938;2022-08-18T12:34:16;2.03;;;1.00;;
41255;SDS011;26989;45.524;10.938;2022-08-18T12:36:53;3.30;;;0.98;;
41255;SDS011;26989;45.524;10.938;2022-08-18T12:39:22;2.95;;;1.33;;
41255;SDS011;26989;45.524;10.938;2022-08-18T12:41:50;2.10;;;0.93;;
41255;SDS011;26989;45.524;10.938;2022-08-18T12:44:17;2.60;;;0.85;;
41255;SDS011;26989;45.524;10.938;2022-08-18T12:46:45;5.32;;;1.20;;
41255;SDS011;26989;45.524;10.938;2022-08-18T12:49:21;2.90;;;1.15;;
41255;SDS011;26989;45.524;10.938;2022-08-18T12:51:50;2.70;;;1.20;;
41255;SDS011;26989;45.524;10.938;2022-08-18T12:56:49;4.25;;;1.20;;
41255;SDS011;26989;45.524;10.938;2022-08-18T13:01:46;5.78;;;1.55;;
41255;SDS011;26989;45.524;10.938;2022-08-18T13:04:13;3.20;;;1.75;;
41255;SDS011;26989;45.524;10.938;2022-08-18T13:06:53;3.95;;;1.77;;
41255;SDS011;26989;45.524;10.938;2022-08-18T13:09:28;2.60;;;1.83;;
41255;SDS011;26989;45.524;10.938;2022-08-18T13:12:13;4.50;;;1.88;;
41255;SDS011;26989;45.524;10.938;2022-08-18T13:14:42;2.28;;;1.50;;
41255;SDS011;26989;45.524;10.938;2022-08-18T13:17:10;4.65;;;2.38;;
41255;SDS011;26989;45.524;10.938;2022-08-18T13:19:58;7.07;;;1.90;;
41255;SDS011;26989;45.524;10.938;2022-08-18T13:22:25;3.78;;;2.00;;
41255;SDS011;26989;45.524;10.938;2022-08-18T13:24:57;4.45;;;1.60;;
41255;SDS011;26989;45.524;10.938;2022-08-18T13:27:25;5.50;;;1.60;;
41255;SDS011;26989;45.524;10.938;2022-08-18T13:29:58;3.28;;;1.50;;
41255;SDS011;26989;45.524;10.938;2022-08-18T13:32:25;6.70;;;2.35;;
41255;SDS011;26989;45.524;10.938;2022-08-18T13:35:04;5.47;;;1.80;;
41255;SDS011;26989;45.524;10.938;2022-08-18T13:37:39;4.30;;;2.10;;
41255;SDS011;26989;45.524;10.938;2022-08-18T13:40:09;7.75;;;2.28;;
41255;SDS011;26989;45.524;10.938;2022-08-18T13:42:45;5.82;;;1.88;;
41255;SDS011;26989;45.524;10.938;2022-08-18T13:45:18;2.85;;;1.67;;
41255;SDS011;26989;45.524;10.938;2022-08-18T13:47:50;2.63;;;1.42;;
41255;SDS011;26989;45.524;10.938;2022-08-18T13:50:19;5.22;;;1.50;;
41255;SDS011;26989;45.524;10.938;2022-08-18T13:52:55;5.13;;;1.40;;
41255;SDS011;26989;45.524;10.938;2022-08-18T13:55:26;5.90;;;1.27;;
41255;SDS011;26989;45.524;10.938;2022-08-18T13:57:54;4.28;;;1.40;;
41255;SDS011;26989;45.524;10.938;2022-08-18T14:00:22;5.75;;;1.30;;
41255;SDS011;26989;45.524;10.938;2022-08-18T14:02:55;2.35;;;1.33;;
41255;SDS011;26989;45.524;10.938;2022-08-18T14:05:28;6.30;;;1.80;;
41255;SDS011;26989;45.524;10.938;2022-08-18T14:08:16;6.00;;;1.75;;
41255;SDS011;26989;45.524;10.938;2022-08-18T14:10:47;5.57;;;2.05;;
41255;SDS011;26989;45.524;10.938;2022-08-18T14:13:15;4.35;;;1.63;;
41255;SDS011;26989;45.524;10.938;2022-08-18T14:15:50;3.58;;;1.42;;
41255;SDS011;26989;45.524;10.938;2022-08-18T14:18:21;4.15;;;1.40;;
41255;SDS011;26989;45.524;10.938;2022-08-18T14:20:56;5.93;;;1.70;;
41255;SDS011;26989;45.524;10.938;2022-08-18T14:23:46;4.97;;;1.77;;
41255;SDS011;26989;45.524;10.938;2022-08-18T14:26:39;2.83;;;1.13;;
41255;SDS011;26989;45.524;10.938;2022-08-18T14:29:15;3.40;;;1.35;;
41255;SDS011;26989;45.524;10.938;2022-08-18T14:32:04;5.82;;;1.30;;
41255;SDS011;26989;45.524;10.938;2022-08-18T14:34:32;5.40;;;1.80;;
41255;SDS011;26989;45.524;10.938;2022-08-18T14:37:01;4.22;;;1.40;;
41255;SDS011;26989;45.524;10.938;2022-08-18T14:39:27;4.57;;;1.67;;
41255;SDS011;26989;45.524;10.938;2022-08-18T14:41:55;4.70;;;1.35;;
41255;SDS011;26989;45.524;10.938;2022-08-18T14:44:23;3.63;;;1.40;;
41255;SDS011;26989;45.524;10.938;2022-08-18T14:46:57;5.55;;;1.63;;
41255;SDS011;26989;45.524;10.938;2022-08-18T14:49:24;4.78;;;1.20;;
41255;SDS011;26989;45.524;10.938;2022-08-18T14:51:55;3.92;;;1.63;;
41255;SDS011;26989;45.524;10.938;2022-08-18T14:54:23;6.43;;;1.30;;
41255;SDS011;26989;45.524;10.938;2022-08-18T14:56:55;4.32;;;1.23;;
41255;SDS011;26989;45.524;10.938;2022-08-18T14:59:23;5.15;;;1.05;;
41255;SDS011;26989;45.524;10.938;2022-08-18T15:01:50;2.25;;;0.75;;
41255;SDS011;26989;45.524;10.938;2022-08-18T15:04:18;3.13;;;0.90;;
41255;SDS011;26989;45.524;10.938;2022-08-18T15:06:46;8.82;;;1.45;;
41255;SDS011;26989;45.524;10.938;2022-08-18T15:09:22;4.03;;;0.95;;
41255;SDS011;26989;45.524;10.938;2022-08-18T15:11:52;4.00;;;0.90;;
41255;SDS011;26989;45.524;10.938;2022-08-18T15:14:21;3.53;;;0.85;;
41255;SDS011;26989;45.524;10.938;2022-08-18T15:16:57;2.33;;;0.70;;
41255;SDS011;26989;45.524;10.938;2022-08-18T15:19:25;3.65;;;1.00;;
41255;SDS011;26989;45.524;10.938;2022-08-18T15:22:12;3.65;;;1.30;;
41255;SDS011;26989;45.524;10.938;2022-08-18T15:24:57;3.28;;;0.93;;
41255;SDS011;26989;45.524;10.938;2022-08-18T15:27:43;4.32;;;1.00;;
41255;SDS011;26989;45.524;10.938;2022-08-18T15:30:11;4.68;;;0.77;;
41255;SDS011;26989;45.524;10.938;2022-08-18T15:32:48;3.22;;;1.05;;
41255;SDS011;26989;45.524;10.938;2022-08-18T15:35:16;6.32;;;1.35;;
41255;SDS011;26989;45.524;10.938;2022-08-18T15:37:45;2.97;;;1.23;;
41255;SDS011;26989;45.524;10.938;2022-08-18T15:40:26;3.08;;;0.80;;
41255;SDS011;26989;45.524;10.938;2022-08-18T15:43:01;3.47;;;1.00;;
41255;SDS011;26989;45.524;10.938;2022-08-18T15:45:36;3.15;;;0.80;;
41255;SDS011;26989;45.524;10.938;2022-08-18T15:48:24;4.65;;;0.88;;
41255;SDS011;26989;45.524;10.938;2022-08-18T15:50:53;2.90;;;1.00;;
41255;SDS011;26989;45.524;10.938;2022-08-18T15:53:24;3.38;;;0.80;;
41255;SDS011;26989;45.524;10.938;2022-08-18T15:55:55;5.65;;;1.13;;
41255;SDS011;26989;45.524;10.938;2022-08-18T15:58:22;4.88;;;1.13;;
41255;SDS011;26989;45.524;10.938;2022-08-18T16:00:54;3.38;;;0.98;;
41255;SDS011;26989;45.524;10.938;2022-08-18T16:03:24;2.65;;;0.77;;
41255;SDS011;26989;45.524;10.938;2022-08-18T16:05:52;6.18;;;0.77;;
41255;SDS011;26989;45.524;10.938;2022-08-18T16:08:21;3.55;;;0.90;;
41255;SDS011;26989;45.524;10.938;2022-08-18T16:10:49;6.30;;;1.20;;
41255;SDS011;26989;45.524;10.938;2022-08-18T16:13:16;3.10;;;0.95;;
41255;SDS011;26989;45.524;10.938;2022-08-18T16:15:44;5.00;;;1.10;;
41255;SDS011;26989;45.524;10.938;2022-08-18T16:18:14;4.35;;;1.25;;
41255;SDS011;26989;45.524;10.938;2022-08-18T16:20:42;2.75;;;0.70;;
41255;SDS011;26989;45.524;10.938;2022-08-18T16:23:10;3.78;;;0.90;;
41255;SDS011;26989;45.524;10.938;2022-08-18T16:25:38;3.30;;;0.70;;
41255;SDS011;26989;45.524;10.938;2022-08-18T16:28:06;3.47;;;0.80;;
41255;SDS011;26989;45.524;10.938;2022-08-18T16:30:33;5.35;;;1.10;;
41255;SDS011;26989;45.524;10.938;2022-08-18T16:33:01;2.00;;;0.80;;
41255;SDS011;26989;45.524;10.938;2022-08-18T16:35:31;2.97;;;0.80;;
41255;SDS011;26989;45.524;10.938;2022-08-18T16:38:06;5.70;;;1.13;;
41255;SDS011;26989;45.524;10.938;2022-08-18T16:40:34;6.18;;;0.82;;
41255;SDS011;26989;45.524;10.938;2022-08-18T16:43:02;4.70;;;0.95;;
41255;SDS011;26989;45.524;10.938;2022-08-18T16:45:31;4.13;;;0.85;;
41255;SDS011;26989;45.524;10.938;2022-08-18T16:47:59;4.53;;;1.00;;
41255;SDS011;26989;45.524;10.938;2022-08-18T16:50:27;4.05;;;0.98;;
41255;SDS011;26989;45.524;10.938;2022-08-18T16:52:55;2.33;;;0.70;;
41255;SDS011;26989;45.524;10.938;2022-08-18T16:55:22;5.15;;;1.60;;
41255;SDS011;26989;45.524;10.938;2022-08-18T16:57:49;5.07;;;1.70;;
41255;SDS011;26989;45.524;10.938;2022-08-18T17:00:40;3.70;;;1.10;;
41255;SDS011;26989;45.524;10.938;2022-08-18T17:03:25;3.90;;;0.68;;
41255;SDS011;26989;45.524;10.938;2022-08-18T17:06:12;4.35;;;0.93;;
41255;SDS011;26989;45.524;10.938;2022-08-18T17:08:41;4.88;;;1.10;;
41255;SDS011;26989;45.524;10.938;2022-08-18T17:11:10;6.93;;;1.05;;
41255;SDS011;26989;45.524;10.938;2022-08-18T17:13:39;3.88;;;0.73;;
41255;SDS011;26989;45.524;10.938;2022-08-18T17:16:07;3.30;;;0.80;;
41255;SDS011;26989;45.524;10.938;2022-08-18T17:18:35;4.18;;;1.20;;
41255;SDS011;26989;45.524;10.938;2022-08-18T17:21:03;3.17;;;0.80;;
41255;SDS011;26989;45.524;10.938;2022-08-18T17:23:32;2.72;;;0.70;;
41255;SDS011;26989;45.524;10.938;2022-08-18T17:26:05;3.53;;;0.75;;
41255;SDS011;26989;45.524;10.938;2022-08-18T17:28:42;4.30;;;0.95;;
41255;SDS011;26989;45.524;10.938;2022-08-18T17:31:16;4.18;;;1.13;;
41255;SDS011;26989;45.524;10.938;2022-08-18T17:33:50;3.00;;;0.88;;
41255;SDS011;26989;45.524;10.938;2022-08-18T17:36:24;5.00;;;1.17;;
41255;SDS011;26989;45.524;10.938;2022-08-18T17:39:00;4.82;;;1.27;;
41255;SDS011;26989;45.524;10.938;2022-08-18T17:41:29;4.32;;;1.13;;
41255;SDS011;26989;45.524;10.938;2022-08-18T17:43:56;4.53;;;1.13;;
41255;SDS011;26989;45.524;10.938;2022-08-18T17:46:29;3.03;;;0.90;;
41255;SDS011;26989;45.524;10.938;2022-08-18T17:49:05;6.25;;;1.08;;
41255;SDS011;26989;45.524;10.938;2022-08-18T17:51:38;7.45;;;1.13;;
41255;SDS011;26989;45.524;10.938;2022-08-18T17:57:05;3.28;;;0.90;;
41255;SDS011;26989;45.524;10.938;2022-08-18T17:59:34;4.15;;;1.13;;
41255;SDS011;26989;45.524;10.938;2022-08-18T18:02:21;5.45;;;0.82;;
41255;SDS011;26989;45.524;10.938;2022-08-18T18:04:56;4.40;;;1.38;;
41255;SDS011;26989;45.524;10.938;2022-08-18T18:12:39;3.92;;;1.33;;
41255;SDS011;26989;45.524;10.938;2022-08-18T18:15:08;3.28;;;1.13;;
41255;SDS011;26989;45.524;10.938;2022-08-18T18:17:38;3.47;;;1.20;;
41255;SDS011;26989;45.524;10.938;2022-08-18T18:20:22;5.90;;;1.20;;
41255;SDS011;26989;45.524;10.938;2022-08-18T18:23:18;2.63;;;1.08;;